createdAt,value
2018-05-17T00:00:31.638Z,90.44
2018-05-17T00:01:31.734Z,90.63
2018-05-17T00:02:31.834Z,90.44
2018-05-17T00:03:31.956Z,90.63
2018-05-17T00:04:32.053Z,90.77
2018-05-17T00:05:32.152Z,91.63
2018-05-17T00:06:32.250Z,91.25
2018-05-17T00:07:32.348Z,89.91
2018-05-17T00:08:32.446Z,90.01
2018-05-17T00:09:32.547Z,90.30
2018-05-17T00:10:32.638Z,90.58
2018-05-17T00:11:32.734Z,90.39
2018-05-17T00:12:32.832Z,89.81
2018-05-17T00:13:32.929Z,89.05
2018-05-17T00:14:33.027Z,89.15
2018-05-17T00:15:33.124Z,89.43
2018-05-17T00:16:33.220Z,89.43
2018-05-17T00:17:33.317Z,89.34
2018-05-17T00:18:33.421Z,89.15
2018-05-17T00:19:33.517Z,88.76
2018-05-17T00:20:33.610Z,87.81
2018-05-17T00:21:33.709Z,87.71
2018-05-17T00:22:33.807Z,87.71
2018-05-17T00:23:33.893Z,87.33
2018-05-17T00:24:33.992Z,87.71
2018-05-17T00:25:34.745Z,88.09
2018-05-17T00:26:34.215Z,87.52
2018-05-17T00:27:34.324Z,87.90
2018-05-17T00:28:34.422Z,87.52
2018-05-17T00:29:34.620Z,87.43
2018-05-17T00:30:34.799Z,87.14
2018-05-17T00:31:34.767Z,87.48
2018-05-17T00:32:34.938Z,88.43
2018-05-17T00:33:34.883Z,88.05
2018-05-17T00:34:35.053Z,88.15
2018-05-17T00:35:35.082Z,88.72
2018-05-17T00:36:35.341Z,88.15
2018-05-17T00:37:35.310Z,88.72
2018-05-17T00:38:35.410Z,88.15
2018-05-17T00:39:35.521Z,89.06
2018-05-17T00:40:35.628Z,89.34
2018-05-17T00:41:35.729Z,88.96
2018-05-17T00:42:35.842Z,89.53
2018-05-17T00:43:35.947Z,89.15
2018-05-17T00:44:36.634Z,89.67
2018-05-17T00:45:36.210Z,88.58
2018-05-17T00:46:36.322Z,88.58
2018-05-17T00:47:36.457Z,89.25
2018-05-17T00:48:36.550Z,89.25
2018-05-17T00:49:36.689Z,89.06
2018-05-17T00:50:36.696Z,89.15
2018-05-17T00:51:36.826Z,89.73
2018-05-17T00:52:36.926Z,89.06
2018-05-17T00:53:37.036Z,89.63
2018-05-17T00:54:37.144Z,89.73
2018-05-17T00:55:37.274Z,89.15
2018-05-17T00:56:37.364Z,89.82
2018-05-17T00:57:37.466Z,89.82
2018-05-17T00:58:37.826Z,89.73
2018-05-17T00:59:37.797Z,89.25
2018-05-17T01:00:37.826Z,89.25
2018-05-17T01:01:37.986Z,89.15
2018-05-17T01:02:38.153Z,89.39
2018-05-17T01:03:38.111Z,88.72
2018-05-17T01:04:38.201Z,88.29
2018-05-17T01:05:38.313Z,88.39
2018-05-17T01:06:38.487Z,88.01
2018-05-17T01:07:38.526Z,88.77
2018-05-17T01:08:38.627Z,88.77
2018-05-17T01:09:38.615Z,88.20
2018-05-17T01:10:38.745Z,88.53
2018-05-17T01:11:38.829Z,88.15
2018-05-17T01:12:38.933Z,88.39
2018-05-17T01:13:39.028Z,87.95
2018-05-17T01:14:39.207Z,87.72
2018-05-17T01:15:39.198Z,88.01
2018-05-17T01:16:39.284Z,88.48
2018-05-17T01:17:39.383Z,88.39
2018-05-17T01:18:39.482Z,88.68
2018-05-17T01:19:39.706Z,88.87
2018-05-17T01:20:39.903Z,89.44
2018-05-17T01:21:40.042Z,89.25
2018-05-17T01:22:40.015Z,89.73
2018-05-17T01:23:40.114Z,88.87
2018-05-17T01:24:40.202Z,89.06
2018-05-17T01:25:40.283Z,89.25
2018-05-17T01:26:40.377Z,88.01
2018-05-17T01:27:40.459Z,88.20
2018-05-17T01:28:40.552Z,88.20
2018-05-17T01:29:40.638Z,88.01
2018-05-17T01:30:40.736Z,88.10
2018-05-17T01:31:40.816Z,88.01
2018-05-17T01:32:40.936Z,88.39
2018-05-17T01:33:41.033Z,88.01
2018-05-17T01:34:41.123Z,88.10
2018-05-17T01:35:41.204Z,87.91
2018-05-17T01:36:41.304Z,88.20
2018-05-17T01:37:41.412Z,87.53
2018-05-17T01:38:41.500Z,87.91
2018-05-17T01:39:41.586Z,88.34
2018-05-17T01:40:41.849Z,88.82
2018-05-17T01:41:41.853Z,88.92
2018-05-17T01:42:41.954Z,88.15
2018-05-17T01:43:42.084Z,88.44
2018-05-17T01:44:42.193Z,88.39
2018-05-17T01:45:42.293Z,88.06
2018-05-17T01:46:42.419Z,87.77
2018-05-17T01:47:42.512Z,88.06
2018-05-17T01:48:42.606Z,87.68
2018-05-17T01:49:42.700Z,87.91
2018-05-17T01:50:42.798Z,88.20
2018-05-17T01:51:42.884Z,87.39
2018-05-17T01:52:42.985Z,87.87
2018-05-17T01:53:43.095Z,87.87
2018-05-17T01:54:43.198Z,88.15
2018-05-17T01:55:43.428Z,88.44
2018-05-17T01:56:43.463Z,88.44
2018-05-17T01:57:43.561Z,88.34
2018-05-17T01:58:43.659Z,88.63
2018-05-17T01:59:43.756Z,89.01
2018-05-17T02:00:43.861Z,88.92
2018-05-17T02:01:43.958Z,88.15
2018-05-17T02:02:44.048Z,88.25
2018-05-17T02:03:44.478Z,88.34
2018-05-17T02:04:44.433Z,88.82
2018-05-17T02:05:44.574Z,88.63
2018-05-17T02:06:44.420Z,88.63
2018-05-17T02:07:44.623Z,89.30
2018-05-17T02:08:44.724Z,89.25
2018-05-17T02:09:44.818Z,89.45
2018-05-17T02:10:44.980Z,89.97
2018-05-17T02:11:44.967Z,89.64
2018-05-17T02:12:45.222Z,89.97
2018-05-17T02:13:45.116Z,90.40
2018-05-17T02:14:45.291Z,90.40
2018-05-17T02:15:45.307Z,90.59
2018-05-17T02:16:45.496Z,90.59
2018-05-17T02:17:45.809Z,90.31
2018-05-17T02:18:45.664Z,90.78
2018-05-17T02:19:45.833Z,90.59
2018-05-17T02:20:45.809Z,90.59
2018-05-17T02:21:45.882Z,90.69
2018-05-17T02:22:45.847Z,90.78
2018-05-17T02:23:45.987Z,90.73
2018-05-17T02:24:46.326Z,90.83
2018-05-17T02:25:46.243Z,90.25
2018-05-17T02:26:46.415Z,90.25
2018-05-17T02:27:46.356Z,89.78
2018-05-17T02:28:46.522Z,89.97
2018-05-17T02:29:46.583Z,89.87
2018-05-17T02:30:46.832Z,89.87
2018-05-17T02:31:46.774Z,89.01
2018-05-17T02:32:46.872Z,88.82
2018-05-17T02:33:46.860Z,88.48
2018-05-17T02:34:46.926Z,88.06
2018-05-17T02:35:47.128Z,88.20
2018-05-17T02:36:47.118Z,87.82
2018-05-17T02:37:47.234Z,87.39
2018-05-17T02:38:47.337Z,87.48
2018-05-17T02:39:47.428Z,87.48
2018-05-17T02:40:47.518Z,87.58
2018-05-17T02:41:47.612Z,87.87
2018-05-17T02:42:47.712Z,88.34
2018-05-17T02:43:47.811Z,87.96
2018-05-17T02:44:48.053Z,87.87
2018-05-17T02:45:47.972Z,87.77
2018-05-17T02:46:48.174Z,87.87
2018-05-17T02:47:48.151Z,87.68
2018-05-17T02:48:48.248Z,87.48
2018-05-17T02:49:48.341Z,87.20
2018-05-17T02:50:48.443Z,87.34
2018-05-17T02:51:48.538Z,86.86
2018-05-17T02:52:48.669Z,87.05
2018-05-17T02:53:48.804Z,87.05
2018-05-17T02:54:48.894Z,86.47
2018-05-17T02:55:48.991Z,86.29
2018-05-17T02:56:49.092Z,86.47
2018-05-17T02:57:49.185Z,86.47
2018-05-17T02:58:49.281Z,86.57
2018-05-17T02:59:49.378Z,86.38
2018-05-17T03:00:49.475Z,86.63
2018-05-17T03:01:49.572Z,86.86
2018-05-17T03:02:49.668Z,85.58
2018-05-17T03:03:49.765Z,86.34
2018-05-17T03:04:49.861Z,87.20
2018-05-17T03:05:49.968Z,87.39
2018-05-17T03:06:50.056Z,87.68
2018-05-17T03:07:50.143Z,87.87
2018-05-17T03:08:50.238Z,87.77
2018-05-17T03:09:50.335Z,87.58
2018-05-17T03:10:50.432Z,86.34
2018-05-17T03:11:50.526Z,85.67
2018-05-17T03:12:50.624Z,86.53
2018-05-17T03:13:50.729Z,86.15
2018-05-17T03:14:50.827Z,86.53
2018-05-17T03:15:50.923Z,86.63
2018-05-17T03:16:51.017Z,85.58
2018-05-17T03:17:51.118Z,86.63
2018-05-17T03:18:51.213Z,86.24
2018-05-17T03:19:51.311Z,86.05
2018-05-17T03:20:51.406Z,86.24
2018-05-17T03:21:51.506Z,86.63
2018-05-17T03:22:51.602Z,86.34
2018-05-17T03:23:51.699Z,86.15
2018-05-17T03:24:51.800Z,86.24
2018-05-17T03:25:51.895Z,86.24
2018-05-17T03:26:51.994Z,86.43
2018-05-17T03:27:52.079Z,86.15
2018-05-17T03:28:52.176Z,86.72
2018-05-17T03:29:52.275Z,86.43
2018-05-17T03:30:52.374Z,86.34
2018-05-17T03:31:52.472Z,85.38
2018-05-17T03:32:52.568Z,85.77
2018-05-17T03:33:52.666Z,86.53
2018-05-17T03:34:52.760Z,86.53
2018-05-17T03:35:52.858Z,86.15
2018-05-17T03:36:52.955Z,86.24
2018-05-17T03:37:53.053Z,86.53
2018-05-17T03:38:53.149Z,86.24
2018-05-17T03:39:53.246Z,86.15
2018-05-17T03:40:53.363Z,85.86
2018-05-17T03:41:53.462Z,86.15
2018-05-17T03:42:53.558Z,85.77
2018-05-17T03:43:53.654Z,85.72
2018-05-17T03:44:53.750Z,85.34
2018-05-17T03:45:53.850Z,85.72
2018-05-17T03:46:53.945Z,85.72
2018-05-17T03:47:54.042Z,85.63
2018-05-17T03:48:54.138Z,86.20
2018-05-17T03:49:54.235Z,86.01
2018-05-17T03:50:54.332Z,85.91
2018-05-17T03:51:54.429Z,85.91
2018-05-17T03:52:54.529Z,86.49
2018-05-17T03:53:54.625Z,86.49
2018-05-17T03:54:54.718Z,86.39
2018-05-17T03:55:54.814Z,86.25
2018-05-17T03:56:54.912Z,87.21
2018-05-17T03:57:55.008Z,87.25
2018-05-17T03:58:55.105Z,87.63
2018-05-17T03:59:55.201Z,87.44
2018-05-17T04:00:55.297Z,87.15
2018-05-17T04:01:55.401Z,87.54
2018-05-17T04:02:55.496Z,86.96
2018-05-17T04:03:55.591Z,86.87
2018-05-17T04:04:55.692Z,87.15
2018-05-17T04:05:55.785Z,86.58
2018-05-17T04:06:55.885Z,87.15
2018-05-17T04:07:55.982Z,87.63
2018-05-17T04:08:56.079Z,87.06
2018-05-17T04:09:56.174Z,87.06
2018-05-17T04:10:56.276Z,86.39
2018-05-17T04:11:56.369Z,86.06
2018-05-17T04:12:56.464Z,86.16
2018-05-17T04:13:56.639Z,86.49
2018-05-17T04:14:56.647Z,85.72
2018-05-17T04:15:56.776Z,86.01
2018-05-17T04:16:56.872Z,86.01
2018-05-17T04:17:56.972Z,85.34
2018-05-17T04:18:57.068Z,85.44
2018-05-17T04:19:57.184Z,84.48
2018-05-17T04:20:57.279Z,84.77
2018-05-17T04:21:57.359Z,84.10
2018-05-17T04:22:57.468Z,84.10
2018-05-17T04:23:57.611Z,84.20
2018-05-17T04:24:57.633Z,85.11
2018-05-17T04:25:57.731Z,85.77
2018-05-17T04:26:57.826Z,86.16
2018-05-17T04:27:58.001Z,85.72
2018-05-17T04:28:57.961Z,85.53
2018-05-17T04:29:58.052Z,85.82
2018-05-17T04:30:58.153Z,86.01
2018-05-17T04:31:58.265Z,85.72
2018-05-17T04:32:58.365Z,85.63
2018-05-17T04:33:58.461Z,85.53
2018-05-17T04:34:58.561Z,84.96
2018-05-17T04:35:58.659Z,84.10
2018-05-17T04:36:58.755Z,84.39
2018-05-17T04:37:59.159Z,83.91
2018-05-17T04:38:58.912Z,84.96
2018-05-17T04:39:59.017Z,85.01
2018-05-17T04:40:59.095Z,85.21
2018-05-17T04:41:59.188Z,86.01
2018-05-17T04:42:59.889Z,85.91
2018-05-17T04:43:59.381Z,85.44
2018-05-17T04:45:00.069Z,85.11
2018-05-17T04:45:59.572Z,85.77
2018-05-17T04:46:59.741Z,86.01
2018-05-17T04:47:59.770Z,85.63
2018-05-17T04:48:59.867Z,84.96
2018-05-17T04:49:59.965Z,84.77
2018-05-17T04:51:00.230Z,84.29
2018-05-17T04:52:00.157Z,84.29
2018-05-17T04:53:00.260Z,83.91
2018-05-17T04:54:00.370Z,84.67
2018-05-17T04:55:00.471Z,84.44
2018-05-17T04:56:00.560Z,84.58
2018-05-17T04:57:00.697Z,84.00
2018-05-17T04:58:00.908Z,84.67
2018-05-17T04:59:00.880Z,84.10
2018-05-17T05:00:01.155Z,84.29
2018-05-17T05:01:01.047Z,84.58
2018-05-17T05:02:01.153Z,82.81
2018-05-17T05:03:01.400Z,82.29
2018-05-17T05:04:01.350Z,82.67
2018-05-17T05:05:01.546Z,82.76
2018-05-17T05:06:01.722Z,83.53
2018-05-17T05:07:02.088Z,83.43
2018-05-17T05:08:02.090Z,83.28
2018-05-17T05:09:01.888Z,83.38
2018-05-17T05:10:02.158Z,82.71
2018-05-17T05:11:02.012Z,82.23
2018-05-17T05:12:02.299Z,82.23
2018-05-17T05:13:02.255Z,82.14
2018-05-17T05:14:02.354Z,82.42
2018-05-17T05:15:02.443Z,81.95
2018-05-17T05:16:02.546Z,81.95
2018-05-17T05:17:02.640Z,81.37
2018-05-17T05:18:02.738Z,81.47
2018-05-17T05:19:02.837Z,81.27
2018-05-17T05:20:02.930Z,81.76
2018-05-17T05:21:03.031Z,81.18
2018-05-17T05:22:03.128Z,80.80
2018-05-17T05:23:03.224Z,80.41
2018-05-17T05:24:03.320Z,80.41
2018-05-17T05:25:03.422Z,80.22
2018-05-17T05:26:03.517Z,80.41
2018-05-17T05:27:03.615Z,79.36
2018-05-17T05:28:03.721Z,79.75
2018-05-17T05:29:03.819Z,78.89
2018-05-17T05:30:03.924Z,78.99
2018-05-17T05:31:03.999Z,78.70
2018-05-17T05:32:04.095Z,79.08
2018-05-17T05:33:04.200Z,78.03
2018-05-17T05:34:04.356Z,78.45
2018-05-17T05:35:04.317Z,78.07
2018-05-17T05:36:04.447Z,77.69
2018-05-17T05:37:04.534Z,77.11
2018-05-17T05:38:04.637Z,77.59
2018-05-17T05:39:04.741Z,78.60
2018-05-17T05:40:04.915Z,78.89
2018-05-17T05:41:05.159Z,79.36
2018-05-17T05:42:05.222Z,79.33
2018-05-17T05:43:05.210Z,79.80
2018-05-17T05:44:05.368Z,79.65
2018-05-17T05:45:05.449Z,79.36
2018-05-17T05:46:05.601Z,79.17
2018-05-17T05:47:05.685Z,79.36
2018-05-17T05:48:05.783Z,79.46
2018-05-17T05:49:06.002Z,79.46
2018-05-17T05:50:06.072Z,79.80
2018-05-17T05:51:06.067Z,80.28
2018-05-17T05:52:06.197Z,80.66
2018-05-17T05:53:06.299Z,80.38
2018-05-17T05:54:06.598Z,80.22
2018-05-17T05:55:06.595Z,80.04
2018-05-17T05:56:06.709Z,79.75
2018-05-17T05:57:06.669Z,79.94
2018-05-17T05:58:06.789Z,79.36
2018-05-17T05:59:06.890Z,78.79
2018-05-17T06:00:06.987Z,79.04
2018-05-17T06:01:07.103Z,80.05
2018-05-17T06:02:07.299Z,81.48
2018-05-17T06:03:07.264Z,82.29
2018-05-17T06:04:07.360Z,82.09
2018-05-17T06:05:07.885Z,81.67
2018-05-17T06:06:07.497Z,82.15
2018-05-17T06:07:07.742Z,82.34
2018-05-17T06:08:07.641Z,82.72
2018-05-17T06:09:07.807Z,82.63
2018-05-17T06:10:07.771Z,83.39
2018-05-17T06:11:07.904Z,83.35
2018-05-17T06:12:07.994Z,83.48
2018-05-17T06:13:08.487Z,83.44
2018-05-17T06:14:08.298Z,83.77
2018-05-17T06:15:08.289Z,83.20
2018-05-17T06:16:08.395Z,83.20
2018-05-17T06:17:08.482Z,82.63
2018-05-17T06:18:08.703Z,82.76
2018-05-17T06:19:08.731Z,82.57
2018-05-17T06:20:08.834Z,81.24
2018-05-17T06:21:08.916Z,80.85
2018-05-17T06:22:09.010Z,79.23
2018-05-17T06:23:09.276Z,78.70
2018-05-17T06:24:09.357Z,79.36
2018-05-17T06:25:09.331Z,78.94
2018-05-17T06:26:09.419Z,80.47
2018-05-17T06:27:09.746Z,81.33
2018-05-17T06:28:09.595Z,80.32
2018-05-17T06:29:09.714Z,79.94
2018-05-17T06:30:09.821Z,78.31
2018-05-17T06:31:10.174Z,77.74
2018-05-17T06:32:10.152Z,77.84
2018-05-17T06:33:10.254Z,78.31
2018-05-17T06:34:10.219Z,78.31
2018-05-17T06:35:10.317Z,77.65
2018-05-17T06:36:10.484Z,77.08
2018-05-17T06:37:10.507Z,77.94
2018-05-17T06:38:10.615Z,77.94
2018-05-17T06:39:10.710Z,77.55
2018-05-17T06:40:10.816Z,78.18
2018-05-17T06:41:10.907Z,78.37
2018-05-17T06:42:11.026Z,78.18
2018-05-17T06:43:11.153Z,78.13
2018-05-17T06:44:11.368Z,77.74
2018-05-17T06:45:11.324Z,76.84
2018-05-17T06:46:11.449Z,78.22
2018-05-17T06:47:11.455Z,78.03
2018-05-17T06:48:11.577Z,76.98
2018-05-17T06:49:11.708Z,77.17
2018-05-17T06:50:11.795Z,77.08
2018-05-17T06:51:11.914Z,77.26
2018-05-17T06:52:11.995Z,76.50
2018-05-17T06:53:12.136Z,76.16
2018-05-17T06:54:12.237Z,75.59
2018-05-17T06:55:12.335Z,75.74
2018-05-17T06:56:12.459Z,75.83
2018-05-17T06:57:12.566Z,76.50
2018-05-17T06:58:12.675Z,76.31
2018-05-17T06:59:12.775Z,76.03
2018-05-17T07:00:12.862Z,76.16
2018-05-17T07:01:13.032Z,76.06
2018-05-17T07:02:13.103Z,74.57
2018-05-17T07:03:13.226Z,74.28
2018-05-17T07:04:13.370Z,75.09
2018-05-17T07:05:13.463Z,72.79
2018-05-17T07:06:13.551Z,72.60
2018-05-17T07:07:13.636Z,72.41
2018-05-17T07:08:13.748Z,72.50
2018-05-17T07:09:13.877Z,72.79
2018-05-17T07:10:13.974Z,72.22
2018-05-17T07:11:14.118Z,71.97
2018-05-17T07:12:14.242Z,71.39
2018-05-17T07:13:14.352Z,70.43
2018-05-17T07:14:14.458Z,70.15
2018-05-17T07:15:14.560Z,70.91
2018-05-17T07:16:14.658Z,69.89
2018-05-17T07:17:14.774Z,69.80
2018-05-17T07:18:15.027Z,69.32
2018-05-17T07:19:14.932Z,68.17
2018-05-17T07:20:15.046Z,68.46
2018-05-17T07:21:15.143Z,67.60
2018-05-17T07:22:15.240Z,67.88
2018-05-17T07:23:15.332Z,68.17
2018-05-17T07:24:15.499Z,68.65
2018-05-17T07:25:15.557Z,67.21
2018-05-17T07:26:15.640Z,67.11
2018-05-17T07:27:15.771Z,66.93
2018-05-17T07:28:15.862Z,67.60
2018-05-17T07:29:15.955Z,67.44
2018-05-17T07:30:16.084Z,67.34
2018-05-17T07:31:16.233Z,66.86
2018-05-17T07:32:16.269Z,66.54
2018-05-17T07:33:16.371Z,67.76
2018-05-17T07:34:16.461Z,68.71
2018-05-17T07:35:16.586Z,69.60
2018-05-17T07:36:16.674Z,68.42
2018-05-17T07:37:16.807Z,69.09
2018-05-17T07:38:16.921Z,68.90
2018-05-17T07:39:17.070Z,69.92
2018-05-17T07:40:17.214Z,71.00
2018-05-17T07:41:17.337Z,72.14
2018-05-17T07:42:17.453Z,72.43
2018-05-17T07:43:17.557Z,73.29
2018-05-17T07:44:17.646Z,73.33
2018-05-17T07:45:17.778Z,72.08
2018-05-17T07:46:17.879Z,71.13
2018-05-17T07:47:18.075Z,70.97
2018-05-17T07:48:18.079Z,70.50
2018-05-17T07:49:18.192Z,70.40
2018-05-17T07:50:18.322Z,69.92
2018-05-17T07:51:18.456Z,69.76
2018-05-17T07:52:18.588Z,69.86
2018-05-17T07:53:18.697Z,68.52
2018-05-17T07:54:18.796Z,67.69
2018-05-17T07:55:18.914Z,67.31
2018-05-17T07:56:19.011Z,67.41
2018-05-17T07:57:19.109Z,66.64
2018-05-17T07:58:19.212Z,66.35
2018-05-17T07:59:19.343Z,66.48
2018-05-17T08:00:19.442Z,66.00
2018-05-17T08:01:19.533Z,65.14
2018-05-17T08:02:19.684Z,64.95
2018-05-17T08:03:19.783Z,64.85
2018-05-17T08:04:19.943Z,64.76
2018-05-17T08:05:20.041Z,64.59
2018-05-17T08:06:20.141Z,64.12
2018-05-17T08:07:20.240Z,63.06
2018-05-17T08:08:20.338Z,63.92
2018-05-17T08:09:20.507Z,63.06
2018-05-17T08:10:20.537Z,62.30
2018-05-17T08:11:20.638Z,63.06
2018-05-17T08:12:20.737Z,62.87
2018-05-17T08:13:20.829Z,62.71
2018-05-17T08:14:20.929Z,62.33
2018-05-17T08:15:21.027Z,61.85
2018-05-17T08:16:21.129Z,61.56
2018-05-17T08:17:21.228Z,61.37
2018-05-17T08:18:21.335Z,61.75
2018-05-17T08:19:21.428Z,61.85
2018-05-17T08:20:21.524Z,61.66
2018-05-17T08:21:21.624Z,60.79
2018-05-17T08:22:21.720Z,61.72
2018-05-17T08:23:21.821Z,61.63
2018-05-17T08:24:21.921Z,61.91
2018-05-17T08:25:22.019Z,61.56
2018-05-17T08:26:22.123Z,61.72
2018-05-17T08:27:22.221Z,60.96
2018-05-17T08:28:22.320Z,61.72
2018-05-17T08:29:22.424Z,61.85
2018-05-17T08:30:22.520Z,61.63
2018-05-17T08:31:22.625Z,61.46
2018-05-17T08:32:22.721Z,61.37
2018-05-17T08:33:22.827Z,61.05
2018-05-17T08:34:22.927Z,61.85
2018-05-17T08:35:23.026Z,61.46
2018-05-17T08:36:23.187Z,60.89
2018-05-17T08:37:23.225Z,61.27
2018-05-17T08:38:23.324Z,61.46
2018-05-17T08:39:23.425Z,61.08
2018-05-17T08:40:23.539Z,60.25
2018-05-17T08:41:23.638Z,60.03
2018-05-17T08:42:23.739Z,59.45
2018-05-17T08:43:23.838Z,59.52
2018-05-17T08:44:23.938Z,60.47
2018-05-17T08:45:24.038Z,61.79
2018-05-17T08:46:24.137Z,61.88
2018-05-17T08:47:24.252Z,62.17
2018-05-17T08:48:24.348Z,61.43
2018-05-17T08:49:24.451Z,61.72
2018-05-17T08:50:24.549Z,61.56
2018-05-17T08:51:24.651Z,59.52
2018-05-17T08:52:24.749Z,59.45
2018-05-17T08:53:24.848Z,60.09
2018-05-17T08:54:24.977Z,60.09
2018-05-17T08:55:25.064Z,60.47
2018-05-17T08:56:25.165Z,60.67
2018-05-17T08:57:25.259Z,59.52
2018-05-17T08:58:25.374Z,58.65
2018-05-17T08:59:25.473Z,59.13
2018-05-17T09:00:25.575Z,59.52
2018-05-17T09:01:25.670Z,58.59
2018-05-17T09:02:25.769Z,58.27
2018-05-17T09:03:25.871Z,58.37
2018-05-17T09:04:25.970Z,58.37
2018-05-17T09:05:26.082Z,58.65
2018-05-17T09:06:26.172Z,59.13
2018-05-17T09:07:26.271Z,60.00
2018-05-17T09:08:26.384Z,59.42
2018-05-17T09:09:26.479Z,58.75
2018-05-17T09:10:26.575Z,58.46
2018-05-17T09:11:26.678Z,58.78
2018-05-17T09:12:26.781Z,58.69
2018-05-17T09:13:26.883Z,58.30
2018-05-17T09:14:26.982Z,57.72
2018-05-17T09:15:27.094Z,57.53
2018-05-17T09:16:27.199Z,56.89
2018-05-17T09:17:27.351Z,57.56
2018-05-17T09:18:27.444Z,57.28
2018-05-17T09:19:27.549Z,56.70
2018-05-17T09:20:27.694Z,56.02
2018-05-17T09:21:27.743Z,55.74
2018-05-17T09:22:27.845Z,55.47
2018-05-17T09:23:27.939Z,55.57
2018-05-17T09:24:28.055Z,56.53
2018-05-17T09:25:28.145Z,56.73
2018-05-17T09:26:28.252Z,57.01
2018-05-17T09:27:28.352Z,56.92
2018-05-17T09:28:28.454Z,56.53
2018-05-17T09:29:28.573Z,56.46
2018-05-17T09:30:28.672Z,56.08
2018-05-17T09:31:28.789Z,55.89
2018-05-17T09:32:28.835Z,55.60
2018-05-17T09:33:28.957Z,55.77
2018-05-17T09:34:29.074Z,56.63
2018-05-17T09:35:29.174Z,56.70
2018-05-17T09:36:29.276Z,57.18
2018-05-17T09:37:29.369Z,57.65
2018-05-17T09:38:29.485Z,57.82
2018-05-17T09:39:29.585Z,59.04
2018-05-17T09:40:29.685Z,59.52
2018-05-17T09:41:29.828Z,60.09
2018-05-17T09:42:29.892Z,60.22
2018-05-17T09:43:29.992Z,61.08
2018-05-17T09:44:30.095Z,61.11
2018-05-17T09:45:30.193Z,59.58
2018-05-17T09:46:30.293Z,59.67
2018-05-17T09:47:30.430Z,59.09
2018-05-17T09:48:30.498Z,57.85
2018-05-17T09:49:30.595Z,58.62
2018-05-17T09:50:30.722Z,59.06
2018-05-17T09:51:30.934Z,59.45
2018-05-17T09:52:30.908Z,60.47
2018-05-17T09:53:31.009Z,61.34
2018-05-17T09:54:31.109Z,61.15
2018-05-17T09:55:31.212Z,61.88
2018-05-17T09:56:31.310Z,62.17
2018-05-17T09:57:31.411Z,62.74
2018-05-17T09:58:31.547Z,62.26
2018-05-17T09:59:31.647Z,62.26
2018-05-17T10:00:31.746Z,63.00
2018-05-17T10:01:31.854Z,63.96
2018-05-17T10:02:31.956Z,64.63
2018-05-17T10:03:32.055Z,64.37
2018-05-17T10:04:32.153Z,63.35
2018-05-17T10:05:32.255Z,61.63
2018-05-17T10:06:32.353Z,61.18
2018-05-17T10:07:32.485Z,60.31
2018-05-17T10:08:32.584Z,59.61
2018-05-17T10:09:32.700Z,60.76
2018-05-17T10:10:32.816Z,59.80
2018-05-17T10:11:32.919Z,60.64
2018-05-17T10:12:33.044Z,61.76
2018-05-17T10:13:33.101Z,62.04
2018-05-17T10:14:33.281Z,62.52
2018-05-17T10:15:33.393Z,63.48
2018-05-17T10:16:33.418Z,62.84
2018-05-17T10:17:33.512Z,62.93
2018-05-17T10:18:33.619Z,62.07
2018-05-17T10:19:33.725Z,61.79
2018-05-17T10:20:33.817Z,62.23
2018-05-17T10:21:33.941Z,63.29
2018-05-17T10:22:34.024Z,63.10
2018-05-17T10:23:34.173Z,63.19
2018-05-17T10:24:34.270Z,63.19
2018-05-17T10:25:34.366Z,63.76
2018-05-17T10:26:34.524Z,63.67
2018-05-17T10:27:34.647Z,63.29
2018-05-17T10:28:34.647Z,63.10
2018-05-17T10:29:34.730Z,62.14
2018-05-17T10:30:34.786Z,62.90
2018-05-17T10:31:34.875Z,62.87
2018-05-17T10:32:34.961Z,62.62
2018-05-17T10:33:35.090Z,63.39
2018-05-17T10:34:35.144Z,63.29
2018-05-17T10:35:35.332Z,63.45
2018-05-17T10:36:35.293Z,62.77
2018-05-17T10:37:35.388Z,64.15
2018-05-17T10:38:35.710Z,62.52
2018-05-17T10:39:35.613Z,62.04
2018-05-17T10:40:35.702Z,61.50
2018-05-17T10:41:35.806Z,61.79
2018-05-17T10:42:35.898Z,59.68
2018-05-17T10:43:36.000Z,59.39
2018-05-17T10:44:36.129Z,60.06
2018-05-17T10:45:36.241Z,59.30
2018-05-17T10:46:36.205Z,59.42
2018-05-17T10:47:36.432Z,59.33
2018-05-17T10:48:36.373Z,59.74
2018-05-17T10:49:36.675Z,59.55
2018-05-17T10:50:36.729Z,58.78
2018-05-17T10:51:36.692Z,59.74
2018-05-17T10:52:36.786Z,60.31
2018-05-17T10:53:36.904Z,60.03
2018-05-17T10:54:37.014Z,58.49
2018-05-17T10:55:37.126Z,59.64
2018-05-17T10:56:37.219Z,58.20
2018-05-17T10:57:37.327Z,57.72
2018-05-17T10:58:37.540Z,56.98
2018-05-17T10:59:37.508Z,56.51
2018-05-17T11:00:37.598Z,57.65
2018-05-17T11:01:37.687Z,58.07
2018-05-17T11:02:37.973Z,56.73
2018-05-17T11:03:37.906Z,56.63
2018-05-17T11:04:37.996Z,56.63
2018-05-17T11:05:38.106Z,55.99
2018-05-17T11:06:38.319Z,55.29
2018-05-17T11:07:38.323Z,55.12
2018-05-17T11:08:38.423Z,55.57
2018-05-17T11:09:38.527Z,56.34
2018-05-17T11:10:38.628Z,54.71
2018-05-17T11:11:38.791Z,54.68
2018-05-17T11:12:38.770Z,56.19
2018-05-17T11:13:38.988Z,57.28
2018-05-17T11:14:38.951Z,56.98
2018-05-17T11:15:39.051Z,56.24
2018-05-17T11:16:39.159Z,56.08
2018-05-17T11:17:39.329Z,54.74
2018-05-17T11:18:39.297Z,53.97
2018-05-17T11:19:39.457Z,53.49
2018-05-17T11:20:39.544Z,52.55
2018-05-17T11:21:39.810Z,52.08
2018-05-17T11:22:39.780Z,51.98
2018-05-17T11:23:39.868Z,51.69
2018-05-17T11:24:39.964Z,52.53
2018-05-17T11:25:40.072Z,52.57
2018-05-17T11:26:40.301Z,54.58
2018-05-17T11:27:40.278Z,55.67
2018-05-17T11:28:40.366Z,54.71
2018-05-17T11:29:40.474Z,53.01
2018-05-17T11:30:40.579Z,53.01
2018-05-17T11:31:40.680Z,52.81
2018-05-17T11:32:40.782Z,51.67
2018-05-17T11:33:40.903Z,51.50
2018-05-17T11:34:40.998Z,51.69
2018-05-17T11:35:41.102Z,51.11
2018-05-17T11:36:41.195Z,50.61
2018-05-17T11:37:41.294Z,51.25
2018-05-17T11:38:41.430Z,53.20
2018-05-17T11:39:41.533Z,53.39
2018-05-17T11:40:41.696Z,52.81
2018-05-17T11:41:41.676Z,53.49
2018-05-17T11:42:41.785Z,52.14
2018-05-17T11:43:41.874Z,52.17
2018-05-17T11:44:41.967Z,51.21
2018-05-17T11:45:42.051Z,51.04
2018-05-17T11:46:42.151Z,52.95
2018-05-17T11:47:42.275Z,53.44
2018-05-17T11:48:42.376Z,53.24
2018-05-17T11:49:42.492Z,54.21
2018-05-17T11:50:42.596Z,54.58
2018-05-17T11:51:42.728Z,54.66
2018-05-17T11:52:42.831Z,55.33
2018-05-17T11:53:42.930Z,56.02
2018-05-17T11:54:43.021Z,56.12
2018-05-17T11:55:43.106Z,54.58
2018-05-17T11:56:43.198Z,54.39
2018-05-17T11:57:43.311Z,54.42
2018-05-17T11:58:43.465Z,53.85
2018-05-17T11:59:43.525Z,52.98
2018-05-17T12:00:43.630Z,53.27
2018-05-17T12:01:43.728Z,53.20
2018-05-17T12:02:43.847Z,53.30
2018-05-17T12:03:43.934Z,52.94
2018-05-17T12:04:44.044Z,51.59
2018-05-17T12:05:44.125Z,51.62
2018-05-17T12:06:44.300Z,50.63
2018-05-17T12:07:44.369Z,51.02
2018-05-17T12:08:44.468Z,51.50
2018-05-17T12:09:44.618Z,52.39
2018-05-17T12:10:44.642Z,51.23
2018-05-17T12:11:44.783Z,50.85
2018-05-17T12:12:44.886Z,50.87
2018-05-17T12:13:44.990Z,51.81
2018-05-17T12:14:45.085Z,52.58
2018-05-17T12:15:45.183Z,51.33
2018-05-17T12:16:45.287Z,50.18
2018-05-17T12:17:45.386Z,49.96
2018-05-17T12:18:45.489Z,51.09
2018-05-17T12:19:45.596Z,52.34
2018-05-17T12:20:45.704Z,51.86
2018-05-17T12:21:45.794Z,51.37
2018-05-17T12:22:45.972Z,52.55
2018-05-17T12:23:45.952Z,52.55
2018-05-17T12:24:46.053Z,51.43
2018-05-17T12:25:46.154Z,49.60
2018-05-17T12:26:46.253Z,49.12
2018-05-17T12:27:46.376Z,50.76
2018-05-17T12:28:46.492Z,50.59
2018-05-17T12:29:46.631Z,50.59
2018-05-17T12:30:46.718Z,50.87
2018-05-17T12:31:46.866Z,49.41
2018-05-17T12:32:46.957Z,49.87
2018-05-17T12:33:47.095Z,50.05
2018-05-17T12:34:47.195Z,49.48
2018-05-17T12:35:47.296Z,50.70
2018-05-17T12:36:47.401Z,52.26
2018-05-17T12:37:47.507Z,51.40
2018-05-17T12:38:47.616Z,50.92
2018-05-17T12:39:47.723Z,50.61
2018-05-17T12:40:47.893Z,51.76
2018-05-17T12:41:47.872Z,53.01
2018-05-17T12:42:47.979Z,52.72
2018-05-17T12:43:48.078Z,53.30
2018-05-17T12:44:48.176Z,54.16
2018-05-17T12:45:48.278Z,53.75
2018-05-17T12:46:48.378Z,53.85
2018-05-17T12:47:48.521Z,54.52
2018-05-17T12:48:48.620Z,55.77
2018-05-17T12:49:48.723Z,55.60
2018-05-17T12:50:48.887Z,53.39
2018-05-17T12:51:48.942Z,54.19
2018-05-17T12:52:49.045Z,52.36
2018-05-17T12:53:49.145Z,52.58